Главная страница
METAR-TAF:

METAR-TAF

Аэропорты :

Багдад, Ирак

широта: 33-15-45N, долгота: 44-14-04E, высота над уровнем моря: 35 м

Текущие метеонаблюдения

Эта сводка был подготовлена 26 минут назад, в 01:00 UTC
Ветер 12 Узел от западно-северо-западный
Температура 29°C
Влажность 40%
Давление 1002 hPa
Видимость 10 км и более
Нет облачности ниже 1500 м, и нет кучево-дождевой облачности

METAR: ORBI 240100Z 30012KT CAVOK 29/14 Q1002

Время: 04:26 (01:26 UTC)

Прогноз

Эта сводка был подготовлена 3 часа и 26 минут назад, в 22:00 UTC
Прогноз действительный с 24-го 00 UTC до 24-го 24 UTC
Ветер 10 Узел от западно-северо-западный
Видимость: 8000 м

TAF: ORBI 232200Z 2400/2424 30010KT 8000 NSC

Метеонаблюдения и прогнозы для более 4000 аэропортов (сводки METAR и TAF).

Имеющиеся станции представлены на карте желтыми и красными точками.

Чтобы увидеть название станции, наведите на нее мышь.

Затем щелкните, чтобы увидеть метеонаблюдения и метеопрогнозы.

Управление картой: чтобы увеличить масштаб, щелкните зеленые кнопки с черным крестиком; чтобы уменьшить масштаб, щелкните зеленую кнопку с тире; для просмотра соседних карт щелкайте зеленые стрелки.


METAR-TAF: